Time,TemperatureF,DewpointF,PressureIn,WindDirection,WindDirectionDegrees,WindSpeedMPH,WindSpeedGustMPH,Humidity,HourlyPrecipIn,Conditions,Clouds,dailyrainin,SolarRadiationWatts/m^2,SoftwareType,DateUTC
2013-06-07 00:03:00,50.0,50.0,-100.00,ESE,111,2.0,5.0,99,0.02,,,0.14,0.000000,,2013-06-07 04:03:00,
2013-06-07 00:12:00,50.0,50.0,-100.00,ESE,111,2.0,5.0,99,0.02,,,0.14,0.000000,,2013-06-07 04:12:00,
2013-06-07 00:23:00,50.0,50.0,-100.00,ESE,111,2.0,5.0,99,0.02,,,0.14,0.000000,,2013-06-07 04:23:00,
2013-06-07 00:54:00,50.0,50.0,-100.00,ESE,115,2.0,4.0,100,0.01,,,0.15,0.000000,,2013-06-07 04:54:00,
2013-06-07 01:03:00,50.0,50.0,-100.00,ESE,115,2.0,4.0,100,0.01,,,0.15,0.000000,,2013-06-07 05:03:00,
2013-06-07 01:12:00,50.0,50.0,-100.00,ESE,115,2.0,4.0,100,0.01,,,0.15,0.000000,,2013-06-07 05:12:00,
2013-06-07 01:22:00,50.0,50.0,-100.00,ESE,115,2.0,4.0,100,0.01,,,0.15,0.000000,,2013-06-07 05:22:00,
2013-06-07 01:52:00,50.0,50.0,-100.00,SE,126,2.0,4.0,100,0.00,,,0.15,0.000000,,2013-06-07 05:52:00,
2013-06-07 02:02:00,50.0,50.0,-100.00,SE,126,2.0,4.0,100,0.00,,,0.15,0.000000,,2013-06-07 06:02:00,
2013-06-07 02:12:00,50.0,50.0,-100.00,SE,126,2.0,4.0,100,0.00,,,0.15,0.000000,,2013-06-07 06:12:00,
2013-06-07 02:22:00,50.0,50.0,-100.00,SE,126,2.0,4.0,100,0.00,,,0.15,0.000000,,2013-06-07 06:22:00,
2013-06-07 02:52:00,50.0,50.0,-100.00,ESE,102,2.0,3.0,100,0.02,,,0.17,0.000000,,2013-06-07 06:52:00,
2013-06-07 03:02:00,50.0,50.0,-100.00,ESE,102,2.0,3.0,100,0.02,,,0.17,0.000000,,2013-06-07 07:02:00,
2013-06-07 03:12:00,50.0,50.0,-100.00,ESE,102,2.0,3.0,100,0.02,,,0.17,0.000000,,2013-06-07 07:12:00,
2013-06-07 03:22:00,50.0,50.0,-100.00,ESE,102,2.0,3.0,100,0.02,,,0.17,0.000000,,2013-06-07 07:22:00,
2013-06-07 03:52:00,50.0,50.0,-100.00,NNE,22,1.0,5.0,100,0.02,,,0.19,0.000000,,2013-06-07 07:52:00,
2013-06-07 04:02:00,50.0,50.0,-100.00,NNE,22,1.0,5.0,100,0.02,,,0.19,0.000000,,2013-06-07 08:02:00,
2013-06-07 04:12:00,50.0,50.0,-100.00,NNE,22,1.0,5.0,100,0.02,,,0.19,0.000000,,2013-06-07 08:12:00,
2013-06-07 04:22:00,50.0,50.0,-100.00,NNE,22,1.0,5.0,100,0.02,,,0.19,0.000000,,2013-06-07 08:22:00,
2013-06-07 04:52:00,50.0,50.0,-100.00,NE,48,2.0,4.0,100,0.01,,,0.20,0.000000,,2013-06-07 08:52:00,
2013-06-07 05:02:00,50.0,50.0,-100.00,NE,48,2.0,4.0,100,0.01,,,0.20,0.000000,,2013-06-07 09:02:00,
2013-06-07 05:12:00,50.0,50.0,-100.00,NE,48,2.0,4.0,100,0.01,,,0.20,0.000000,,2013-06-07 09:12:00,
2013-06-07 05:22:00,50.0,50.0,-100.00,NE,48,2.0,4.0,100,0.01,,,0.20,0.000000,,2013-06-07 09:22:00,
2013-06-07 05:53:00,50.0,49.0,-100.00,NE,51,2.0,6.0,98,0.03,,,0.23,1.000000,,2013-06-07 09:53:00,
2013-06-07 06:03:00,50.0,49.0,-100.00,NE,51,2.0,6.0,98,0.03,,,0.23,1.000000,,2013-06-07 10:03:00,
2013-06-07 06:13:00,50.0,49.0,-100.00,NE,51,2.0,6.0,98,0.03,,,0.23,1.000000,,2013-06-07 10:13:00,
2013-06-07 06:23:00,50.0,49.0,-100.00,NE,51,2.0,6.0,98,0.03,,,0.23,1.000000,,2013-06-07 10:23:00,
2013-06-07 06:53:00,50.0,49.0,-100.00,East,92,3.0,9.0,97,0.09,,,0.32,12.000000,,2013-06-07 10:53:00,
2013-06-07 07:02:00,50.0,49.0,-100.00,East,92,3.0,9.0,97,0.09,,,0.32,12.000000,,2013-06-07 11:02:00,
2013-06-07 07:12:00,50.0,49.0,-100.00,East,92,3.0,9.0,97,0.09,,,0.32,12.000000,,2013-06-07 11:12:00,
2013-06-07 07:22:00,50.0,49.0,-100.00,East,92,3.0,9.0,97,0.09,,,0.32,12.000000,,2013-06-07 11:22:00,
2013-06-07 07:52:00,49.0,48.0,-100.00,ENE,78,3.0,9.0,96,0.11,,,0.43,33.000000,,2013-06-07 11:52:00,
2013-06-07 08:02:00,49.0,48.0,-100.00,ENE,78,3.0,9.0,96,0.11,,,0.43,33.000000,,2013-06-07 12:02:00,
2013-06-07 08:13:00,49.0,48.0,-100.00,ENE,78,3.0,9.0,96,0.11,,,0.43,33.000000,,2013-06-07 12:13:00,
2013-06-07 08:22:00,49.0,48.0,-100.00,ENE,78,3.0,9.0,96,0.11,,,0.43,33.000000,,2013-06-07 12:22:00,
2013-06-07 08:52:00,47.0,46.0,-100.00,SSE,157,5.0,14.0,95,0.08,,,0.51,48.000000,,2013-06-07 12:52:00,
2013-06-07 09:02:00,47.0,46.0,-100.00,SSE,157,5.0,14.0,95,0.08,,,0.51,48.000000,,2013-06-07 13:02:00,
2013-06-07 09:13:00,47.0,46.0,-100.00,SSE,157,5.0,14.0,95,0.08,,,0.51,48.000000,,2013-06-07 13:13:00,
2013-06-07 09:22:00,47.0,46.0,-100.00,SSE,157,5.0,14.0,95,0.08,,,0.51,48.000000,,2013-06-07 13:22:00,
2013-06-07 09:52:00,49.0,48.0,-100.00,SE,135,3.0,14.0,96,0.02,,,0.51,96.000000,,2013-06-07 13:52:00,
2013-06-07 10:03:00,49.0,48.0,-100.00,SE,135,3.0,14.0,96,0.02,,,0.51,96.000000,,2013-06-07 14:03:00,
2013-06-07 10:13:00,49.0,48.0,-100.00,SE,135,3.0,14.0,96,0.02,,,0.51,96.000000,,2013-06-07 14:13:00,
2013-06-07 10:23:00,49.0,48.0,-100.00,SE,135,3.0,14.0,96,0.02,,,0.51,96.000000,,2013-06-07 14:23:00,
2013-06-07 10:52:00,51.0,48.0,-100.00,ENE,77,3.0,9.0,90,0.01,,,0.52,174.000000,,2013-06-07 14:52:00,
2013-06-07 11:03:00,51.0,48.0,-100.00,ENE,77,3.0,9.0,90,0.01,,,0.52,174.000000,,2013-06-07 15:03:00,
2013-06-07 11:12:00,51.0,48.0,-100.00,ENE,77,3.0,9.0,90,0.01,,,0.52,174.000000,,2013-06-07 15:12:00,
2013-06-07 11:23:00,51.0,48.0,-100.00,ENE,77,3.0,9.0,90,0.01,,,0.52,174.000000,,2013-06-07 15:23:00,
2013-06-07 11:53:00,51.0,48.0,-100.00,ENE,66,3.0,10.0,89,0.00,,,-99.99,221.000000,,2013-06-07 15:53:00,
2013-06-07 12:03:00,51.0,48.0,-100.00,ENE,66,3.0,10.0,89,0.00,,,-99.99,221.000000,,2013-06-07 16:03:00,
2013-06-07 12:13:00,51.0,48.0,-100.00,ENE,66,3.0,10.0,89,0.00,,,-99.99,221.000000,,2013-06-07 16:13:00,
2013-06-07 12:22:00,51.0,48.0,-100.00,ENE,66,3.0,10.0,89,0.00,,,-99.99,221.000000,,2013-06-07 16:22:00,
2013-06-07 12:53:00,52.0,49.0,-100.00,ESE,113,5.0,13.0,90,0.03,,,0.55,262.000000,,2013-06-07 16:53:00,
2013-06-07 13:03:00,52.0,49.0,-100.00,ESE,113,5.0,13.0,90,0.03,,,0.55,262.000000,,2013-06-07 17:03:00,
2013-06-07 13:13:00,52.0,49.0,-100.00,ESE,113,5.0,13.0,90,0.03,,,0.55,262.000000,,2013-06-07 17:13:00,
2013-06-07 13:23:00,52.0,49.0,-100.00,ESE,113,5.0,13.0,90,0.03,,,0.55,262.000000,,2013-06-07 17:23:00,
2013-06-07 13:53:00,53.0,49.0,-100.00,SE,125,4.0,13.0,87,0.00,,,0.55,325.000000,,2013-06-07 17:53:00,
2013-06-07 14:10:00,53.0,49.0,-100.00,SE,125,4.0,13.0,87,0.00,,,0.55,325.000000,,2013-06-07 18:10:00,
2013-06-07 14:20:00,53.0,49.0,-100.00,SE,125,4.0,13.0,87,0.00,,,0.55,325.000000,,2013-06-07 18:20:00,
2013-06-07 14:25:00,54.0,49.0,-100.00,SE,125,5.0,14.0,82,0.00,,,0.55,317.000000,,2013-06-07 18:25:00,
2013-06-07 15:01:00,54.0,49.0,-100.00,SE,125,5.0,14.0,82,0.00,,,0.55,317.000000,,2013-06-07 19:01:00,
2013-06-07 15:09:00,54.0,49.0,-100.00,SE,125,5.0,14.0,82,0.00,,,0.55,317.000000,,2013-06-07 19:09:00,
2013-06-07 15:59:00,54.0,47.0,-100.00,ESE,108,4.0,13.0,77,0.00,,,0.54,273.000000,,2013-06-07 19:59:00,
2013-06-07 16:08:00,54.0,47.0,-100.00,ESE,108,4.0,13.0,77,0.00,,,0.54,273.000000,,2013-06-07 20:08:00,
2013-06-07 16:18:00,54.0,47.0,-100.00,ESE,108,4.0,13.0,77,0.00,,,0.54,273.000000,,2013-06-07 20:18:00,
2013-06-07 16:25:00,53.0,47.0,-100.00,East,84,4.0,12.0,80,0.00,,,0.54,229.000000,,2013-06-07 20:25:00,
2013-06-07 16:59:00,53.0,47.0,-100.00,East,84,4.0,12.0,80,0.00,,,0.54,229.000000,,2013-06-07 20:59:00,
2013-06-07 17:20:00,53.0,47.0,-100.00,East,84,4.0,12.0,80,0.00,,,0.54,229.000000,,2013-06-07 21:20:00,
2013-06-07 17:25:00,53.0,46.0,-100.00,East,88,3.0,12.0,76,0.00,,,0.54,140.000000,,2013-06-07 21:25:00,
2013-06-07 18:09:00,53.0,46.0,-100.00,East,88,3.0,12.0,76,0.00,,,0.54,140.000000,,2013-06-07 22:09:00,
2013-06-07 18:24:00,53.0,46.0,-100.00,East,88,3.0,12.0,76,0.00,,,0.54,140.000000,,2013-06-07 22:24:00,
2013-06-07 18:25:00,50.0,47.0,-100.00,East,92,3.0,11.0,91,0.03,,,-99.99,71.000000,,2013-06-07 22:25:00,
2013-06-07 19:00:00,50.0,47.0,-100.00,East,92,3.0,11.0,91,0.03,,,-99.99,71.000000,,2013-06-07 23:00:00,
2013-06-07 19:10:00,50.0,47.0,-100.00,East,92,3.0,11.0,91,0.03,,,-99.99,71.000000,,2013-06-07 23:10:00,
2013-06-07 19:19:00,50.0,47.0,-100.00,East,92,3.0,11.0,91,0.03,,,-99.99,71.000000,,2013-06-07 23:19:00,
2013-06-07 19:25:00,49.0,47.0,-100.00,ENE,78,3.0,8.0,94,0.05,,,0.56,26.000000,,2013-06-07 23:25:00,
2013-06-07 20:05:00,49.0,47.0,-100.00,ENE,78,3.0,8.0,94,0.05,,,0.56,26.000000,,2013-06-08 00:05:00,
2013-06-07 20:14:00,49.0,47.0,-100.00,ENE,78,3.0,8.0,94,0.05,,,0.56,26.000000,,2013-06-08 00:14:00,
2013-06-07 20:25:00,49.0,48.0,-100.00,NE,53,3.0,6.0,97,0.06,,,0.61,8.000000,,2013-06-08 00:25:00,
2013-06-07 21:02:00,49.0,48.0,-100.00,NE,53,3.0,6.0,97,0.06,,,0.61,8.000000,,2013-06-08 01:02:00,
2013-06-07 21:08:00,49.0,48.0,-100.00,NE,53,3.0,6.0,97,0.06,,,0.61,8.000000,,2013-06-08 01:08:00,
2013-06-07 22:03:00,49.0,48.0,-100.00,ENE,58,3.0,8.0,97,0.07,,,0.67,0.000000,,2013-06-08 02:03:00,
2013-06-07 22:12:00,49.0,48.0,-100.00,ENE,58,3.0,8.0,97,0.07,,,0.67,0.000000,,2013-06-08 02:12:00,
2013-06-07 22:25:00,49.0,48.0,-100.00,ENE,68,4.0,10.0,98,0.08,,,0.74,0.000000,,2013-06-08 02:25:00,
2013-06-07 23:00:00,49.0,48.0,-100.00,ENE,68,4.0,10.0,98,0.08,,,0.74,0.000000,,2013-06-08 03:00:00,
2013-06-07 23:12:00,49.0,48.0,-100.00,ENE,68,4.0,10.0,98,0.08,,,0.74,0.000000,,2013-06-08 03:12:00,
2013-06-07 23:19:00,49.0,48.0,-100.00,ENE,68,4.0,10.0,98,0.08,,,0.74,0.000000,,2013-06-08 03:19:00,